sensor_id;sensor_type;location;lat;lon;timestamp;temperature;humidity
31733;DHT22;18312;51.486;7.144;2022-07-29T00:00:46;18.80;77.90
31733;DHT22;18312;51.486;7.144;2022-07-29T00:03:14;18.80;78.00
31733;DHT22;18312;51.486;7.144;2022-07-29T00:05:41;18.70;78.30
31733;DHT22;18312;51.486;7.144;2022-07-29T00:08:09;18.70;78.60
31733;DHT22;18312;51.486;7.144;2022-07-29T00:10:36;18.70;78.70
31733;DHT22;18312;51.486;7.144;2022-07-29T00:13:06;18.60;78.80
31733;DHT22;18312;51.486;7.144;2022-07-29T00:15:33;18.60;79.60
31733;DHT22;18312;51.486;7.144;2022-07-29T00:18:00;18.60;79.60
31733;DHT22;18312;51.486;7.144;2022-07-29T00:20:26;18.50;80.20
31733;DHT22;18312;51.486;7.144;2022-07-29T00:22:53;18.50;80.30
31733;DHT22;18312;51.486;7.144;2022-07-29T00:25:21;18.50;80.50
31733;DHT22;18312;51.486;7.144;2022-07-29T00:27:48;18.50;80.70
31733;DHT22;18312;51.486;7.144;2022-07-29T00:30:20;18.50;80.90
31733;DHT22;18312;51.486;7.144;2022-07-29T00:32:54;18.50;81.50
31733;DHT22;18312;51.486;7.144;2022-07-29T00:35:21;18.50;81.80
31733;DHT22;18312;51.486;7.144;2022-07-29T00:38:05;18.50;82.10
31733;DHT22;18312;51.486;7.144;2022-07-29T00:40:34;18.40;82.50
31733;DHT22;18312;51.486;7.144;2022-07-29T00:43:00;18.50;82.80
31733;DHT22;18312;51.486;7.144;2022-07-29T00:45:30;18.40;83.40
31733;DHT22;18312;51.486;7.144;2022-07-29T00:47:57;18.40;84.30
31733;DHT22;18312;51.486;7.144;2022-07-29T00:50:24;18.40;84.60
31733;DHT22;18312;51.486;7.144;2022-07-29T00:52:52;18.30;85.50
31733;DHT22;18312;51.486;7.144;2022-07-29T00:55:21;18.30;86.70
31733;DHT22;18312;51.486;7.144;2022-07-29T00:57:50;18.20;87.10
31733;DHT22;18312;51.486;7.144;2022-07-29T01:00:19;18.20;88.50
31733;DHT22;18312;51.486;7.144;2022-07-29T01:02:46;18.20;89.10
31733;DHT22;18312;51.486;7.144;2022-07-29T01:05:15;18.10;90.00
31733;DHT22;18312;51.486;7.144;2022-07-29T01:07:43;18.10;90.80
31733;DHT22;18312;51.486;7.144;2022-07-29T01:10:12;18.00;91.50
31733;DHT22;18312;51.486;7.144;2022-07-29T01:12:39;17.90;91.80
31733;DHT22;18312;51.486;7.144;2022-07-29T01:15:08;17.90;92.40
31733;DHT22;18312;51.486;7.144;2022-07-29T01:17:40;17.80;92.60
31733;DHT22;18312;51.486;7.144;2022-07-29T01:20:13;17.80;92.80
31733;DHT22;18312;51.486;7.144;2022-07-29T01:22:53;17.80;93.10
31733;DHT22;18312;51.486;7.144;2022-07-29T01:28:47;17.70;93.80
31733;DHT22;18312;51.486;7.144;2022-07-29T01:31:20;17.60;94.50
31733;DHT22;18312;51.486;7.144;2022-07-29T01:33:57;17.60;94.50
31733;DHT22;18312;51.486;7.144;2022-07-29T01:36:30;17.70;94.60
31733;DHT22;18312;51.486;7.144;2022-07-29T01:39:02;17.70;94.70
31733;DHT22;18312;51.486;7.144;2022-07-29T01:41:33;17.70;94.80
31733;DHT22;18312;51.486;7.144;2022-07-29T01:44:10;17.60;94.90
31733;DHT22;18312;51.486;7.144;2022-07-29T01:46:48;17.60;95.20
31733;DHT22;18312;51.486;7.144;2022-07-29T01:49:21;17.60;95.30
31733;DHT22;18312;51.486;7.144;2022-07-29T01:51:51;17.60;95.60
31733;DHT22;18312;51.486;7.144;2022-07-29T01:54:21;17.50;95.70
31733;DHT22;18312;51.486;7.144;2022-07-29T01:56:53;17.50;96.00
31733;DHT22;18312;51.486;7.144;2022-07-29T01:59:23;17.50;96.10
31733;DHT22;18312;51.486;7.144;2022-07-29T02:01:54;17.50;96.50
31733;DHT22;18312;51.486;7.144;2022-07-29T02:04:21;17.40;96.90
31733;DHT22;18312;51.486;7.144;2022-07-29T02:06:50;17.30;97.20
31733;DHT22;18312;51.486;7.144;2022-07-29T02:09:19;17.30;97.60
31733;DHT22;18312;51.486;7.144;2022-07-29T02:11:53;17.10;98.00
31733;DHT22;18312;51.486;7.144;2022-07-29T02:14:23;17.10;98.20
31733;DHT22;18312;51.486;7.144;2022-07-29T02:16:51;17.00;98.80
31733;DHT22;18312;51.486;7.144;2022-07-29T02:19:23;17.00;99.70
31733;DHT22;18312;51.486;7.144;2022-07-29T02:21:53;17.00;99.90
31733;DHT22;18312;51.486;7.144;2022-07-29T02:24:22;16.90;99.90
31733;DHT22;18312;51.486;7.144;2022-07-29T02:26:51;17.00;99.90
31733;DHT22;18312;51.486;7.144;2022-07-29T02:29:21;17.00;99.90
31733;DHT22;18312;51.486;7.144;2022-07-29T02:31:50;17.00;99.90
31733;DHT22;18312;51.486;7.144;2022-07-29T02:34:19;17.00;99.90
31733;DHT22;18312;51.486;7.144;2022-07-29T02:36:47;16.90;99.90
31733;DHT22;18312;51.486;7.144;2022-07-29T02:39:18;16.90;99.90
31733;DHT22;18312;51.486;7.144;2022-07-29T02:41:47;16.80;99.90
31733;DHT22;18312;51.486;7.144;2022-07-29T02:44:25;16.80;99.90
31733;DHT22;18312;51.486;7.144;2022-07-29T02:47:01;16.80;99.90
31733;DHT22;18312;51.486;7.144;2022-07-29T02:49:34;16.80;99.90
31733;DHT22;18312;51.486;7.144;2022-07-29T02:52:03;16.80;99.90
31733;DHT22;18312;51.486;7.144;2022-07-29T02:54:37;16.80;99.90
31733;DHT22;18312;51.486;7.144;2022-07-29T02:57:11;16.80;99.90
31733;DHT22;18312;51.486;7.144;2022-07-29T02:59:51;16.80;99.90
31733;DHT22;18312;51.486;7.144;2022-07-29T03:02:20;16.80;99.90
31733;DHT22;18312;51.486;7.144;2022-07-29T03:04:49;16.70;99.90
31733;DHT22;18312;51.486;7.144;2022-07-29T03:07:18;16.70;99.90
31733;DHT22;18312;51.486;7.144;2022-07-29T03:09:47;16.70;99.90
31733;DHT22;18312;51.486;7.144;2022-07-29T03:12:14;16.60;99.90
31733;DHT22;18312;51.486;7.144;2022-07-29T03:14:41;16.60;99.90
31733;DHT22;18312;51.486;7.144;2022-07-29T03:17:09;16.60;99.90
31733;DHT22;18312;51.486;7.144;2022-07-29T03:19:38;16.50;99.90
31733;DHT22;18312;51.486;7.144;2022-07-29T03:22:05;16.40;99.90
31733;DHT22;18312;51.486;7.144;2022-07-29T03:24:34;16.40;99.90
31733;DHT22;18312;51.486;7.144;2022-07-29T03:27:02;16.40;99.90
31733;DHT22;18312;51.486;7.144;2022-07-29T03:29:29;16.40;99.90
31733;DHT22;18312;51.486;7.144;2022-07-29T03:32:00;16.40;99.90
31733;DHT22;18312;51.486;7.144;2022-07-29T03:34:27;16.30;99.90
31733;DHT22;18312;51.486;7.144;2022-07-29T03:36:55;16.30;99.90
31733;DHT22;18312;51.486;7.144;2022-07-29T03:39:25;16.40;99.90
31733;DHT22;18312;51.486;7.144;2022-07-29T03:41:55;16.50;99.90
31733;DHT22;18312;51.486;7.144;2022-07-29T03:44:26;16.60;99.90
31733;DHT22;18312;51.486;7.144;2022-07-29T03:46:55;16.70;99.90
31733;DHT22;18312;51.486;7.144;2022-07-29T03:49:24;16.70;99.90
31733;DHT22;18312;51.486;7.144;2022-07-29T03:51:52;16.80;99.90
31733;DHT22;18312;51.486;7.144;2022-07-29T03:54:23;16.80;99.90
31733;DHT22;18312;51.486;7.144;2022-07-29T03:56:51;16.90;99.90
31733;DHT22;18312;51.486;7.144;2022-07-29T03:59:22;17.00;99.90
31733;DHT22;18312;51.486;7.144;2022-07-29T04:01:51;17.00;99.90
31733;DHT22;18312;51.486;7.144;2022-07-29T04:04:22;16.90;99.90
31733;DHT22;18312;51.486;7.144;2022-07-29T04:06:51;16.90;99.90
31733;DHT22;18312;51.486;7.144;2022-07-29T04:09:18;17.00;99.90
31733;DHT22;18312;51.486;7.144;2022-07-29T04:11:46;17.00;99.90
31733;DHT22;18312;51.486;7.144;2022-07-29T04:14:13;17.00;99.90
31733;DHT22;18312;51.486;7.144;2022-07-29T04:16:39;17.00;99.90
31733;DHT22;18312;51.486;7.144;2022-07-29T04:19:06;17.10;99.90
31733;DHT22;18312;51.486;7.144;2022-07-29T04:21:37;17.10;99.90
31733;DHT22;18312;51.486;7.144;2022-07-29T04:24:04;17.10;99.90
31733;DHT22;18312;51.486;7.144;2022-07-29T04:26:34;17.00;99.90
31733;DHT22;18312;51.486;7.144;2022-07-29T04:29:02;17.00;99.90
31733;DHT22;18312;51.486;7.144;2022-07-29T04:31:29;17.00;99.90
31733;DHT22;18312;51.486;7.144;2022-07-29T04:33:55;16.90;99.90
31733;DHT22;18312;51.486;7.144;2022-07-29T04:36:22;16.90;99.90
31733;DHT22;18312;51.486;7.144;2022-07-29T04:38:49;16.80;99.90
31733;DHT22;18312;51.486;7.144;2022-07-29T04:41:16;16.70;99.90
31733;DHT22;18312;51.486;7.144;2022-07-29T04:43:43;16.60;99.90
31733;DHT22;18312;51.486;7.144;2022-07-29T04:46:11;16.50;99.90
31733;DHT22;18312;51.486;7.144;2022-07-29T04:48:37;16.30;99.90
31733;DHT22;18312;51.486;7.144;2022-07-29T04:51:07;16.40;99.90
31733;DHT22;18312;51.486;7.144;2022-07-29T04:53:34;16.40;99.90
31733;DHT22;18312;51.486;7.144;2022-07-29T04:56:00;16.40;99.90
31733;DHT22;18312;51.486;7.144;2022-07-29T04:58:27;16.40;99.90
31733;DHT22;18312;51.486;7.144;2022-07-29T05:00:54;16.40;99.90
31733;DHT22;18312;51.486;7.144;2022-07-29T05:03:22;16.50;99.90
31733;DHT22;18312;51.486;7.144;2022-07-29T05:05:55;16.50;99.90
31733;DHT22;18312;51.486;7.144;2022-07-29T05:08:21;16.60;99.90
31733;DHT22;18312;51.486;7.144;2022-07-29T05:10:48;16.50;99.90
31733;DHT22;18312;51.486;7.144;2022-07-29T05:13:15;16.60;99.90
31733;DHT22;18312;51.486;7.144;2022-07-29T05:15:41;16.60;99.90
31733;DHT22;18312;51.486;7.144;2022-07-29T05:18:12;16.70;99.90
31733;DHT22;18312;51.486;7.144;2022-07-29T05:20:40;16.70;99.90
31733;DHT22;18312;51.486;7.144;2022-07-29T05:23:07;16.70;99.90
31733;DHT22;18312;51.486;7.144;2022-07-29T05:25:34;16.80;99.90
31733;DHT22;18312;51.486;7.144;2022-07-29T05:28:01;16.80;99.90
31733;DHT22;18312;51.486;7.144;2022-07-29T05:30:28;16.80;99.90
31733;DHT22;18312;51.486;7.144;2022-07-29T05:32:54;16.70;99.90
31733;DHT22;18312;51.486;7.144;2022-07-29T05:35:21;16.70;99.90
31733;DHT22;18312;51.486;7.144;2022-07-29T05:37:52;16.70;99.90
31733;DHT22;18312;51.486;7.144;2022-07-29T05:40:23;16.70;99.90
31733;DHT22;18312;51.486;7.144;2022-07-29T05:42:49;16.60;99.90
31733;DHT22;18312;51.486;7.144;2022-07-29T05:45:16;16.60;99.90
31733;DHT22;18312;51.486;7.144;2022-07-29T05:47:43;16.70;99.90
31733;DHT22;18312;51.486;7.144;2022-07-29T05:50:12;16.70;99.90
31733;DHT22;18312;51.486;7.144;2022-07-29T05:52:39;16.80;99.90
31733;DHT22;18312;51.486;7.144;2022-07-29T05:55:08;16.70;99.90
31733;DHT22;18312;51.486;7.144;2022-07-29T05:57:35;16.80;99.90
31733;DHT22;18312;51.486;7.144;2022-07-29T06:00:02;16.70;99.90
31733;DHT22;18312;51.486;7.144;2022-07-29T06:02:32;16.60;99.90
31733;DHT22;18312;51.486;7.144;2022-07-29T06:04:59;16.50;99.90
31733;DHT22;18312;51.486;7.144;2022-07-29T06:07:29;16.60;99.90
31733;DHT22;18312;51.486;7.144;2022-07-29T06:09:58;16.50;99.90
31733;DHT22;18312;51.486;7.144;2022-07-29T06:12:26;16.50;99.90
31733;DHT22;18312;51.486;7.144;2022-07-29T06:14:52;16.70;99.90
31733;DHT22;18312;51.486;7.144;2022-07-29T06:17:19;16.70;99.90
31733;DHT22;18312;51.486;7.144;2022-07-29T06:19:46;16.80;99.90
31733;DHT22;18312;51.486;7.144;2022-07-29T06:22:14;16.80;99.90
31733;DHT22;18312;51.486;7.144;2022-07-29T06:24:41;16.80;99.90
31733;DHT22;18312;51.486;7.144;2022-07-29T06:27:12;16.90;99.90
31733;DHT22;18312;51.486;7.144;2022-07-29T06:29:43;16.90;99.90
31733;DHT22;18312;51.486;7.144;2022-07-29T06:32:13;16.80;99.90
31733;DHT22;18312;51.486;7.144;2022-07-29T06:34:39;16.70;99.90
31733;DHT22;18312;51.486;7.144;2022-07-29T06:37:14;16.80;99.90
31733;DHT22;18312;51.486;7.144;2022-07-29T06:39:43;16.80;99.90
31733;DHT22;18312;51.486;7.144;2022-07-29T06:42:10;16.70;99.90
31733;DHT22;18312;51.486;7.144;2022-07-29T06:44:39;16.80;99.90
31733;DHT22;18312;51.486;7.144;2022-07-29T06:47:08;16.80;99.90
31733;DHT22;18312;51.486;7.144;2022-07-29T06:49:35;17.00;99.90
31733;DHT22;18312;51.486;7.144;2022-07-29T06:52:02;17.30;99.90
31733;DHT22;18312;51.486;7.144;2022-07-29T06:54:29;17.50;99.90
31733;DHT22;18312;51.486;7.144;2022-07-29T06:56:56;17.60;99.90
31733;DHT22;18312;51.486;7.144;2022-07-29T06:59:22;17.80;99.90
31733;DHT22;18312;51.486;7.144;2022-07-29T07:01:49;18.00;99.90
31733;DHT22;18312;51.486;7.144;2022-07-29T07:04:20;18.00;99.90
31733;DHT22;18312;51.486;7.144;2022-07-29T07:06:47;18.10;99.90
31733;DHT22;18312;51.486;7.144;2022-07-29T07:09:14;18.20;99.90
31733;DHT22;18312;51.486;7.144;2022-07-29T07:11:41;18.40;99.90
31733;DHT22;18312;51.486;7.144;2022-07-29T07:14:07;18.50;99.90
31733;DHT22;18312;51.486;7.144;2022-07-29T07:16:34;18.70;99.90
31733;DHT22;18312;51.486;7.144;2022-07-29T07:19:01;19.00;99.90
31733;DHT22;18312;51.486;7.144;2022-07-29T07:21:32;19.00;99.90
31733;DHT22;18312;51.486;7.144;2022-07-29T07:24:05;19.10;99.90
31733;DHT22;18312;51.486;7.144;2022-07-29T07:26:31;19.10;99.90
31733;DHT22;18312;51.486;7.144;2022-07-29T07:29:11;19.10;99.90
31733;DHT22;18312;51.486;7.144;2022-07-29T07:31:38;19.20;99.90
31733;DHT22;18312;51.486;7.144;2022-07-29T07:34:05;19.20;99.90
31733;DHT22;18312;51.486;7.144;2022-07-29T07:36:33;19.40;99.90
31733;DHT22;18312;51.486;7.144;2022-07-29T07:39:00;19.40;99.90
31733;DHT22;18312;51.486;7.144;2022-07-29T07:41:27;19.40;99.90
31733;DHT22;18312;51.486;7.144;2022-07-29T07:43:54;19.40;99.90
31733;DHT22;18312;51.486;7.144;2022-07-29T07:46:21;19.40;99.90
31733;DHT22;18312;51.486;7.144;2022-07-29T07:48:48;19.50;99.90
31733;DHT22;18312;51.486;7.144;2022-07-29T07:51:14;19.40;99.90
31733;DHT22;18312;51.486;7.144;2022-07-29T07:53:43;19.20;99.90
31733;DHT22;18312;51.486;7.144;2022-07-29T07:56:10;19.30;99.90
31733;DHT22;18312;51.486;7.144;2022-07-29T07:58:36;19.40;99.90
31733;DHT22;18312;51.486;7.144;2022-07-29T08:01:03;19.40;99.90
31733;DHT22;18312;51.486;7.144;2022-07-29T08:03:30;19.60;99.90
31733;DHT22;18312;51.486;7.144;2022-07-29T08:06:00;19.60;99.90
31733;DHT22;18312;51.486;7.144;2022-07-29T08:08:27;19.40;99.90
31733;DHT22;18312;51.486;7.144;2022-07-29T08:10:55;19.50;99.90
31733;DHT22;18312;51.486;7.144;2022-07-29T08:13:24;19.60;99.90
31733;DHT22;18312;51.486;7.144;2022-07-29T08:15:55;19.60;99.90
31733;DHT22;18312;51.486;7.144;2022-07-29T08:18:28;19.90;99.90
31733;DHT22;18312;51.486;7.144;2022-07-29T08:20:55;20.10;99.90
31733;DHT22;18312;51.486;7.144;2022-07-29T08:23:22;20.10;99.90
31733;DHT22;18312;51.486;7.144;2022-07-29T08:25:49;20.00;99.90
31733;DHT22;18312;51.486;7.144;2022-07-29T08:28:20;20.10;99.90
31733;DHT22;18312;51.486;7.144;2022-07-29T08:30:47;19.80;99.90
31733;DHT22;18312;51.486;7.144;2022-07-29T08:33:17;19.70;99.90
31733;DHT22;18312;51.486;7.144;2022-07-29T08:35:43;19.30;99.90
31733;DHT22;18312;51.486;7.144;2022-07-29T08:38:11;19.60;99.90
31733;DHT22;18312;51.486;7.144;2022-07-29T08:40:37;19.80;99.90
31733;DHT22;18312;51.486;7.144;2022-07-29T08:43:05;19.90;99.90
31733;DHT22;18312;51.486;7.144;2022-07-29T08:45:42;19.60;99.90
31733;DHT22;18312;51.486;7.144;2022-07-29T08:48:10;19.70;99.90
31733;DHT22;18312;51.486;7.144;2022-07-29T08:50:38;19.50;99.90
31733;DHT22;18312;51.486;7.144;2022-07-29T08:53:08;19.50;99.90
31733;DHT22;18312;51.486;7.144;2022-07-29T08:55:39;19.50;99.90
31733;DHT22;18312;51.486;7.144;2022-07-29T08:58:07;19.40;99.90
31733;DHT22;18312;51.486;7.144;2022-07-29T09:00:34;19.30;99.90
31733;DHT22;18312;51.486;7.144;2022-07-29T09:03:06;19.00;99.90
31733;DHT22;18312;51.486;7.144;2022-07-29T09:05:34;19.00;99.90
31733;DHT22;18312;51.486;7.144;2022-07-29T09:08:02;19.20;99.90
31733;DHT22;18312;51.486;7.144;2022-07-29T09:10:29;19.20;99.90
31733;DHT22;18312;51.486;7.144;2022-07-29T09:12:58;19.30;99.90
31733;DHT22;18312;51.486;7.144;2022-07-29T09:15:25;19.40;99.90
31733;DHT22;18312;51.486;7.144;2022-07-29T09:17:51;19.40;99.90
31733;DHT22;18312;51.486;7.144;2022-07-29T09:20:21;19.50;99.90
31733;DHT22;18312;51.486;7.144;2022-07-29T09:22:51;19.20;99.90
31733;DHT22;18312;51.486;7.144;2022-07-29T09:25:32;19.40;99.90
31733;DHT22;18312;51.486;7.144;2022-07-29T09:28:06;19.50;99.90
31733;DHT22;18312;51.486;7.144;2022-07-29T09:30:33;19.50;99.90
31733;DHT22;18312;51.486;7.144;2022-07-29T09:33:02;19.50;99.90
31733;DHT22;18312;51.486;7.144;2022-07-29T09:35:31;19.40;99.90
31733;DHT22;18312;51.486;7.144;2022-07-29T09:37:58;19.50;99.90
31733;DHT22;18312;51.486;7.144;2022-07-29T09:40:35;19.50;99.90
31733;DHT22;18312;51.486;7.144;2022-07-29T09:43:09;19.10;99.90
31733;DHT22;18312;51.486;7.144;2022-07-29T09:45:37;19.20;99.90
31733;DHT22;18312;51.486;7.144;2022-07-29T09:48:14;19.00;99.90
31733;DHT22;18312;51.486;7.144;2022-07-29T09:50:44;18.70;99.90
31733;DHT22;18312;51.486;7.144;2022-07-29T09:53:29;18.70;99.90
31733;DHT22;18312;51.486;7.144;2022-07-29T09:55:56;18.70;99.90
31733;DHT22;18312;51.486;7.144;2022-07-29T09:58:23;18.70;99.90
31733;DHT22;18312;51.486;7.144;2022-07-29T10:00:54;18.60;99.90
31733;DHT22;18312;51.486;7.144;2022-07-29T10:03:23;18.50;99.90
31733;DHT22;18312;51.486;7.144;2022-07-29T10:06:06;18.50;99.90
31733;DHT22;18312;51.486;7.144;2022-07-29T10:08:33;18.60;99.90
31733;DHT22;18312;51.486;7.144;2022-07-29T10:11:09;18.70;99.90
31733;DHT22;18312;51.486;7.144;2022-07-29T10:13:36;18.50;99.90
31733;DHT22;18312;51.486;7.144;2022-07-29T10:16:06;18.50;99.90
31733;DHT22;18312;51.486;7.144;2022-07-29T10:18:38;18.40;99.90
31733;DHT22;18312;51.486;7.144;2022-07-29T10:21:06;18.60;99.90
31733;DHT22;18312;51.486;7.144;2022-07-29T10:23:34;18.70;99.90
31733;DHT22;18312;51.486;7.144;2022-07-29T10:26:02;18.80;99.90
31733;DHT22;18312;51.486;7.144;2022-07-29T10:28:30;18.80;99.90
31733;DHT22;18312;51.486;7.144;2022-07-29T10:31:03;18.70;99.90
31733;DHT22;18312;51.486;7.144;2022-07-29T10:33:41;18.70;99.90
31733;DHT22;18312;51.486;7.144;2022-07-29T10:36:24;18.80;99.90
31733;DHT22;18312;51.486;7.144;2022-07-29T10:39:00;19.00;99.90
31733;DHT22;18312;51.486;7.144;2022-07-29T10:44:33;19.00;99.90
31733;DHT22;18312;51.486;7.144;2022-07-29T10:47:07;18.70;99.90
31733;DHT22;18312;51.486;7.144;2022-07-29T10:49:37;18.60;99.90
31733;DHT22;18312;51.486;7.144;2022-07-29T10:52:09;18.60;99.90
31733;DHT22;18312;51.486;7.144;2022-07-29T10:54:47;18.60;99.90
31733;DHT22;18312;51.486;7.144;2022-07-29T10:57:22;18.70;99.90
31733;DHT22;18312;51.486;7.144;2022-07-29T11:00:25;18.70;99.90
31733;DHT22;18312;51.486;7.144;2022-07-29T11:02:52;18.70;99.90
31733;DHT22;18312;51.486;7.144;2022-07-29T11:05:21;18.70;99.90
31733;DHT22;18312;51.486;7.144;2022-07-29T11:08:21;18.70;99.90
31733;DHT22;18312;51.486;7.144;2022-07-29T11:10:50;18.80;99.90
31733;DHT22;18312;51.486;7.144;2022-07-29T11:13:47;18.70;99.90
31733;DHT22;18312;51.486;7.144;2022-07-29T11:16:16;18.90;99.90
31733;DHT22;18312;51.486;7.144;2022-07-29T11:19:19;19.10;99.90
31733;DHT22;18312;51.486;7.144;2022-07-29T11:21:46;19.30;99.90
31733;DHT22;18312;51.486;7.144;2022-07-29T11:24:18;19.30;99.90
31733;DHT22;18312;51.486;7.144;2022-07-29T11:27:09;19.40;99.90
31733;DHT22;18312;51.486;7.144;2022-07-29T11:29:47;19.40;99.90
31733;DHT22;18312;51.486;7.144;2022-07-29T11:32:16;19.70;99.90
31733;DHT22;18312;51.486;7.144;2022-07-29T11:34:45;20.00;99.90
31733;DHT22;18312;51.486;7.144;2022-07-29T11:37:20;20.50;99.90
31733;DHT22;18312;51.486;7.144;2022-07-29T11:40:15;20.90;99.90
31733;DHT22;18312;51.486;7.144;2022-07-29T11:42:43;20.80;99.90
31733;DHT22;18312;51.486;7.144;2022-07-29T11:45:17;20.60;99.90
31733;DHT22;18312;51.486;7.144;2022-07-29T11:47:51;20.80;99.90
31733;DHT22;18312;51.486;7.144;2022-07-29T11:50:28;21.00;99.90
31733;DHT22;18312;51.486;7.144;2022-07-29T11:52:55;21.20;99.90
31733;DHT22;18312;51.486;7.144;2022-07-29T11:55:25;21.30;99.90
31733;DHT22;18312;51.486;7.144;2022-07-29T11:57:53;21.30;99.90
31733;DHT22;18312;51.486;7.144;2022-07-29T12:00:25;21.50;99.90
31733;DHT22;18312;51.486;7.144;2022-07-29T12:02:57;21.50;99.90
31733;DHT22;18312;51.486;7.144;2022-07-29T12:05:33;22.10;99.50
31733;DHT22;18312;51.486;7.144;2022-07-29T12:08:12;22.50;97.10
31733;DHT22;18312;51.486;7.144;2022-07-29T12:10:41;22.90;95.60
31733;DHT22;18312;51.486;7.144;2022-07-29T12:13:08;22.50;96.60
31733;DHT22;18312;51.486;7.144;2022-07-29T12:15:36;22.60;95.50
31733;DHT22;18312;51.486;7.144;2022-07-29T12:18:13;22.70;94.20
31733;DHT22;18312;51.486;7.144;2022-07-29T12:20:40;22.80;94.60
31733;DHT22;18312;51.486;7.144;2022-07-29T12:23:11;23.10;95.10
31733;DHT22;18312;51.486;7.144;2022-07-29T12:25:44;23.10;93.00
31733;DHT22;18312;51.486;7.144;2022-07-29T12:28:12;23.40;93.20
31733;DHT22;18312;51.486;7.144;2022-07-29T12:30:43;23.40;92.50
31733;DHT22;18312;51.486;7.144;2022-07-29T12:33:19;23.40;91.40
31733;DHT22;18312;51.486;7.144;2022-07-29T12:35:51;23.80;90.90
31733;DHT22;18312;51.486;7.144;2022-07-29T12:38:22;23.50;89.20
31733;DHT22;18312;51.486;7.144;2022-07-29T12:40:52;23.60;89.20
31733;DHT22;18312;51.486;7.144;2022-07-29T12:43:21;24.00;90.20
31733;DHT22;18312;51.486;7.144;2022-07-29T12:45:49;23.80;88.20
31733;DHT22;18312;51.486;7.144;2022-07-29T12:48:16;24.50;90.10
31733;DHT22;18312;51.486;7.144;2022-07-29T12:50:55;24.60;89.00
31733;DHT22;18312;51.486;7.144;2022-07-29T12:53:22;24.90;87.90
31733;DHT22;18312;51.486;7.144;2022-07-29T12:55:55;24.80;87.40
31733;DHT22;18312;51.486;7.144;2022-07-29T12:58:30;24.40;89.00
31733;DHT22;18312;51.486;7.144;2022-07-29T13:01:05;24.10;90.10
31733;DHT22;18312;51.486;7.144;2022-07-29T13:03:50;23.60;89.50
31733;DHT22;18312;51.486;7.144;2022-07-29T13:06:31;23.60;89.00
31733;DHT22;18312;51.486;7.144;2022-07-29T13:09:05;23.80;89.60
31733;DHT22;18312;51.486;7.144;2022-07-29T13:11:38;24.10;88.80
31733;DHT22;18312;51.486;7.144;2022-07-29T13:14:06;24.20;90.10
31733;DHT22;18312;51.486;7.144;2022-07-29T13:16:34;24.30;90.20
31733;DHT22;18312;51.486;7.144;2022-07-29T13:19:09;24.20;90.70
31733;DHT22;18312;51.486;7.144;2022-07-29T13:21:37;24.20;90.90
31733;DHT22;18312;51.486;7.144;2022-07-29T13:24:05;24.70;91.50
31733;DHT22;18312;51.486;7.144;2022-07-29T13:26:34;24.60;90.10
31733;DHT22;18312;51.486;7.144;2022-07-29T13:29:02;25.10;89.90
31733;DHT22;18312;51.486;7.144;2022-07-29T13:31:28;24.40;87.40
31733;DHT22;18312;51.486;7.144;2022-07-29T13:33:55;25.00;88.00
31733;DHT22;18312;51.486;7.144;2022-07-29T13:36:22;25.10;87.70
31733;DHT22;18312;51.486;7.144;2022-07-29T13:38:49;25.20;88.60
31733;DHT22;18312;51.486;7.144;2022-07-29T13:41:16;24.90;86.00
31733;DHT22;18312;51.486;7.144;2022-07-29T13:43:44;24.40;86.60
31733;DHT22;18312;51.486;7.144;2022-07-29T13:46:13;24.70;87.20
31733;DHT22;18312;51.486;7.144;2022-07-29T13:48:43;24.60;85.70
31733;DHT22;18312;51.486;7.144;2022-07-29T13:51:09;24.40;85.40
31733;DHT22;18312;51.486;7.144;2022-07-29T13:53:36;24.60;85.80
31733;DHT22;18312;51.486;7.144;2022-07-29T13:56:03;24.80;86.00
31733;DHT22;18312;51.486;7.144;2022-07-29T13:58:34;24.40;86.60
31733;DHT22;18312;51.486;7.144;2022-07-29T14:01:03;24.50;85.90
31733;DHT22;18312;51.486;7.144;2022-07-29T14:03:29;24.20;86.30
31733;DHT22;18312;51.486;7.144;2022-07-29T14:05:56;24.40;85.20
31733;DHT22;18312;51.486;7.144;2022-07-29T14:08:25;25.00;85.90
31733;DHT22;18312;51.486;7.144;2022-07-29T14:10:52;25.00;85.80
31733;DHT22;18312;51.486;7.144;2022-07-29T14:13:18;25.50;85.30
31733;DHT22;18312;51.486;7.144;2022-07-29T14:15:45;26.00;83.10
31733;DHT22;18312;51.486;7.144;2022-07-29T14:18:16;26.20;82.20
31733;DHT22;18312;51.486;7.144;2022-07-29T14:20:43;26.00;82.40
31733;DHT22;18312;51.486;7.144;2022-07-29T14:23:10;25.80;80.70
31733;DHT22;18312;51.486;7.144;2022-07-29T14:25:36;25.60;81.20
31733;DHT22;18312;51.486;7.144;2022-07-29T14:28:06;26.00;83.20
31733;DHT22;18312;51.486;7.144;2022-07-29T14:30:32;25.50;82.80
31733;DHT22;18312;51.486;7.144;2022-07-29T14:32:59;25.40;82.80
31733;DHT22;18312;51.486;7.144;2022-07-29T14:35:27;25.50;82.40
31733;DHT22;18312;51.486;7.144;2022-07-29T14:37:54;25.10;81.80
31733;DHT22;18312;51.486;7.144;2022-07-29T14:40:21;25.60;82.40
31733;DHT22;18312;51.486;7.144;2022-07-29T14:42:48;26.20;82.50
31733;DHT22;18312;51.486;7.144;2022-07-29T14:45:15;26.40;81.30
31733;DHT22;18312;51.486;7.144;2022-07-29T14:47:42;26.50;81.50
31733;DHT22;18312;51.486;7.144;2022-07-29T14:50:09;26.70;80.50
31733;DHT22;18312;51.486;7.144;2022-07-29T14:52:37;27.40;78.70
31733;DHT22;18312;51.486;7.144;2022-07-29T14:55:05;27.40;76.70
31733;DHT22;18312;51.486;7.144;2022-07-29T14:57:32;27.10;77.50
31733;DHT22;18312;51.486;7.144;2022-07-29T14:59:59;27.00;75.80
31733;DHT22;18312;51.486;7.144;2022-07-29T15:02:25;27.50;76.80
31733;DHT22;18312;51.486;7.144;2022-07-29T15:04:52;27.80;76.80
31733;DHT22;18312;51.486;7.144;2022-07-29T15:07:19;28.10;76.40
31733;DHT22;18312;51.486;7.144;2022-07-29T15:09:47;27.90;74.60
31733;DHT22;18312;51.486;7.144;2022-07-29T15:12:14;28.10;74.50
31733;DHT22;18312;51.486;7.144;2022-07-29T15:14:40;27.60;73.70
31733;DHT22;18312;51.486;7.144;2022-07-29T15:17:07;28.00;73.90
31733;DHT22;18312;51.486;7.144;2022-07-29T15:19:34;27.80;74.30
31733;DHT22;18312;51.486;7.144;2022-07-29T15:22:01;28.70;74.10
31733;DHT22;18312;51.486;7.144;2022-07-29T15:24:27;28.40;73.60
31733;DHT22;18312;51.486;7.144;2022-07-29T15:26:56;29.90;73.40
31733;DHT22;18312;51.486;7.144;2022-07-29T15:29:23;28.60;74.00
31733;DHT22;18312;51.486;7.144;2022-07-29T15:31:53;29.10;72.70
31733;DHT22;18312;51.486;7.144;2022-07-29T15:34:19;29.40;73.30
31733;DHT22;18312;51.486;7.144;2022-07-29T15:36:49;29.50;71.30
31733;DHT22;18312;51.486;7.144;2022-07-29T15:39:19;28.10;71.80
31733;DHT22;18312;51.486;7.144;2022-07-29T15:41:46;28.70;73.00
31733;DHT22;18312;51.486;7.144;2022-07-29T15:44:14;28.30;72.10
31733;DHT22;18312;51.486;7.144;2022-07-29T15:46:40;29.00;73.60
31733;DHT22;18312;51.486;7.144;2022-07-29T15:49:25;29.50;72.30
31733;DHT22;18312;51.486;7.144;2022-07-29T15:51:57;29.60;70.70